KMWL

Mineral Wells Airport

Mineral Wells, Texas, USA
METAR KMWL 210353Z AUTO 01004KT 10SM CLR 26/18 A3003 RMK AO2 SLP156 T02560178
Observed Flight Rules
Aug-21 @ 03:53 UTC (17 minutes ago) Visual Flight Rules
Wind Visibility Clouds
10° at 4 knots 10 miles
  • Clear skies
Temperatures Readings
Current 26°C / 79°F
Dewpoint 18°C / 64°F
Humidity 61%
Altimeter 30.03" Hg
Pressure 1015.6 hPa
Elevation 284
METAR KMWL 210353Z AUTO 01004KT 10SM CLR 26/18 A3003 RMK AO2 SLP156 T02560178
Observed Flight Rules
Aug-21 @ 03:53 UTC
(17 minutes ago)
VFR
Wind Visibility
10° at 4 knots 10 miles
Clouds
  • Clear skies
Temperature Dewpoint
26°C / 79°F 18°C / 64°F
Humidity Altimeter Pressure
61% 30.03" Hg 1015.6 hPa